sensor_id;sensor_type;location;lat;lon;timestamp;P1;durP1;ratioP1;P2;durP2;ratioP2
6566;SDS011;3317;43.994;22.878;2023-05-18T15:38:23;10.23;;;4.73;;
6566;SDS011;3317;43.994;22.878;2023-05-18T15:40:52;8.43;;;4.20;;
6566;SDS011;3317;43.994;22.878;2023-05-18T15:43:20;10.80;;;5.00;;
6566;SDS011;3317;43.994;22.878;2023-05-18T15:45:48;11.70;;;5.10;;
6566;SDS011;3317;43.994;22.878;2023-05-18T15:48:15;9.50;;;5.57;;
6566;SDS011;3317;43.994;22.878;2023-05-18T15:50:42;11.20;;;6.90;;
6566;SDS011;3317;43.994;22.878;2023-05-18T15:53:10;12.17;;;6.33;;
6566;SDS011;3317;43.994;22.878;2023-05-18T15:55:41;10.53;;;5.20;;
6566;SDS011;3317;43.994;22.878;2023-05-18T15:58:08;11.30;;;5.73;;
6566;SDS011;3317;43.994;22.878;2023-05-18T16:00:37;8.80;;;5.40;;
6566;SDS011;3317;43.994;22.878;2023-05-18T16:03:04;18.33;;;6.47;;
6566;SDS011;3317;43.994;22.878;2023-05-18T16:05:31;9.37;;;5.60;;
6566;SDS011;3317;43.994;22.878;2023-05-18T16:07:58;10.23;;;6.53;;
6566;SDS011;3317;43.994;22.878;2023-05-18T16:10:25;13.30;;;8.63;;
6566;SDS011;3317;43.994;22.878;2023-05-18T16:12:53;7.70;;;5.07;;
6566;SDS011;3317;43.994;22.878;2023-05-18T16:15:24;8.20;;;5.40;;
6566;SDS011;3317;43.994;22.878;2023-05-18T16:17:51;8.77;;;5.63;;
6566;SDS011;3317;43.994;22.878;2023-05-18T16:20:18;10.13;;;5.90;;
6566;SDS011;3317;43.994;22.878;2023-05-18T16:22:46;10.10;;;8.03;;
6566;SDS011;3317;43.994;22.878;2023-05-18T16:25:13;20.60;;;10.90;;
6566;SDS011;3317;43.994;22.878;2023-05-18T16:27:40;9.93;;;7.37;;
6566;SDS011;3317;43.994;22.878;2023-05-18T16:30:09;6.60;;;5.10;;
6566;SDS011;3317;43.994;22.878;2023-05-18T16:32:36;10.20;;;5.23;;
6566;SDS011;3317;43.994;22.878;2023-05-18T16:35:07;11.13;;;7.20;;
6566;SDS011;3317;43.994;22.878;2023-05-18T16:37:36;13.20;;;6.50;;
6566;SDS011;3317;43.994;22.878;2023-05-18T16:40:03;10.97;;;6.33;;
6566;SDS011;3317;43.994;22.878;2023-05-18T16:42:31;13.77;;;6.93;;
6566;SDS011;3317;43.994;22.878;2023-05-18T16:44:58;20.57;;;10.00;;
6566;SDS011;3317;43.994;22.878;2023-05-18T16:47:27;13.30;;;7.50;;
6566;SDS011;3317;43.994;22.878;2023-05-18T16:49:56;8.20;;;6.00;;
6566;SDS011;3317;43.994;22.878;2023-05-18T16:52:23;37.10;;;21.93;;
6566;SDS011;3317;43.994;22.878;2023-05-18T16:54:50;79.37;;;43.60;;
6566;SDS011;3317;43.994;22.878;2023-05-18T16:57:17;24.40;;;15.87;;
6566;SDS011;3317;43.994;22.878;2023-05-18T16:59:45;22.30;;;16.40;;
6566;SDS011;3317;43.994;22.878;2023-05-18T17:02:13;18.10;;;15.30;;
6566;SDS011;3317;43.994;22.878;2023-05-18T17:04:43;11.47;;;8.60;;
6566;SDS011;3317;43.994;22.878;2023-05-18T17:07:10;12.47;;;7.30;;
6566;SDS011;3317;43.994;22.878;2023-05-18T17:09:37;21.47;;;8.50;;
6566;SDS011;3317;43.994;22.878;2023-05-18T17:12:07;17.53;;;10.60;;
6566;SDS011;3317;43.994;22.878;2023-05-18T17:14:35;14.20;;;9.00;;
6566;SDS011;3317;43.994;22.878;2023-05-18T17:17:03;17.40;;;9.67;;
6566;SDS011;3317;43.994;22.878;2023-05-18T17:19:31;12.50;;;8.00;;
6566;SDS011;3317;43.994;22.878;2023-05-18T17:22:00;17.60;;;8.40;;
6566;SDS011;3317;43.994;22.878;2023-05-18T17:24:30;19.83;;;8.67;;
6566;SDS011;3317;43.994;22.878;2023-05-18T17:26:57;9.40;;;6.50;;
6566;SDS011;3317;43.994;22.878;2023-05-18T17:29:24;15.30;;;9.60;;
6566;SDS011;3317;43.994;22.878;2023-05-18T17:31:51;11.77;;;8.20;;
6566;SDS011;3317;43.994;22.878;2023-05-18T17:34:18;14.13;;;11.40;;
6566;SDS011;3317;43.994;22.878;2023-05-18T17:36:46;13.43;;;9.80;;
6566;SDS011;3317;43.994;22.878;2023-05-18T17:39:14;10.43;;;8.47;;
6566;SDS011;3317;43.994;22.878;2023-05-18T17:41:44;16.13;;;13.33;;
6566;SDS011;3317;43.994;22.878;2023-05-18T17:44:11;14.80;;;10.47;;
6566;SDS011;3317;43.994;22.878;2023-05-18T17:46:38;13.00;;;9.13;;
6566;SDS011;3317;43.994;22.878;2023-05-18T17:49:05;15.50;;;11.20;;
6566;SDS011;3317;43.994;22.878;2023-05-18T17:51:32;20.33;;;12.60;;
6566;SDS011;3317;43.994;22.878;2023-05-18T17:54:01;12.23;;;10.93;;
6566;SDS011;3317;43.994;22.878;2023-05-18T17:56:30;8.97;;;7.97;;
6566;SDS011;3317;43.994;22.878;2023-05-18T17:58:58;11.10;;;8.10;;
6566;SDS011;3317;43.994;22.878;2023-05-18T18:01:25;11.90;;;7.90;;
6566;SDS011;3317;43.994;22.878;2023-05-18T18:03:52;10.47;;;7.53;;
6566;SDS011;3317;43.994;22.878;2023-05-18T18:06:20;12.23;;;8.00;;
6566;SDS011;3317;43.994;22.878;2023-05-18T18:08:48;12.37;;;7.47;;
6566;SDS011;3317;43.994;22.878;2023-05-18T18:11:16;17.20;;;8.43;;
6566;SDS011;3317;43.994;22.878;2023-05-18T18:13:46;17.90;;;8.40;;
6566;SDS011;3317;43.994;22.878;2023-05-18T18:16:14;15.60;;;8.70;;
6566;SDS011;3317;43.994;22.878;2023-05-18T18:18:41;16.10;;;7.43;;
6566;SDS011;3317;43.994;22.878;2023-05-18T18:21:09;12.30;;;9.50;;
6566;SDS011;3317;43.994;22.878;2023-05-18T18:23:37;14.70;;;9.60;;
6566;SDS011;3317;43.994;22.878;2023-05-18T18:26:05;10.03;;;8.03;;
6566;SDS011;3317;43.994;22.878;2023-05-18T18:28:32;9.20;;;7.63;;
6566;SDS011;3317;43.994;22.878;2023-05-18T18:31:01;11.80;;;7.90;;
6566;SDS011;3317;43.994;22.878;2023-05-18T18:33:29;16.90;;;9.47;;
6566;SDS011;3317;43.994;22.878;2023-05-18T18:35:56;17.53;;;10.00;;
6566;SDS011;3317;43.994;22.878;2023-05-18T18:38:24;15.90;;;10.20;;
6566;SDS011;3317;43.994;22.878;2023-05-18T18:40:52;18.33;;;10.70;;
6566;SDS011;3317;43.994;22.878;2023-05-18T18:43:24;11.17;;;7.73;;
6566;SDS011;3317;43.994;22.878;2023-05-18T18:45:52;9.67;;;7.93;;
6566;SDS011;3317;43.994;22.878;2023-05-18T18:48:22;12.53;;;7.60;;
6566;SDS011;3317;43.994;22.878;2023-05-18T18:50:50;13.17;;;7.90;;
6566;SDS011;3317;43.994;22.878;2023-05-18T18:53:17;10.33;;;7.20;;
6566;SDS011;3317;43.994;22.878;2023-05-18T18:55:44;11.90;;;8.27;;
6566;SDS011;3317;43.994;22.878;2023-05-18T18:58:11;9.00;;;6.40;;
6566;SDS011;3317;43.994;22.878;2023-05-18T19:00:39;8.03;;;6.57;;
6566;SDS011;3317;43.994;22.878;2023-05-18T19:03:06;11.57;;;7.23;;
6566;SDS011;3317;43.994;22.878;2023-05-18T19:05:36;12.50;;;7.77;;
6566;SDS011;3317;43.994;22.878;2023-05-18T19:08:06;14.70;;;8.90;;
6566;SDS011;3317;43.994;22.878;2023-05-18T19:10:33;11.23;;;8.80;;
6566;SDS011;3317;43.994;22.878;2023-05-18T19:13:00;14.40;;;9.60;;
6566;SDS011;3317;43.994;22.878;2023-05-18T19:15:30;15.43;;;8.67;;
6566;SDS011;3317;43.994;22.878;2023-05-18T19:17:57;15.10;;;11.73;;
6566;SDS011;3317;43.994;22.878;2023-05-18T19:20:25;9.70;;;7.80;;
6566;SDS011;3317;43.994;22.878;2023-05-18T19:22:54;9.80;;;6.60;;
6566;SDS011;3317;43.994;22.878;2023-05-18T19:25:22;14.97;;;6.77;;
6566;SDS011;3317;43.994;22.878;2023-05-18T19:27:50;11.57;;;6.77;;
6566;SDS011;3317;43.994;22.878;2023-05-18T19:30:18;15.03;;;7.10;;
6566;SDS011;3317;43.994;22.878;2023-05-18T19:32:46;11.40;;;7.00;;
6566;SDS011;3317;43.994;22.878;2023-05-18T19:35:13;10.70;;;7.60;;
6566;SDS011;3317;43.994;22.878;2023-05-18T19:37:41;14.80;;;7.30;;
6566;SDS011;3317;43.994;22.878;2023-05-18T19:40:10;8.17;;;6.57;;
6566;SDS011;3317;43.994;22.878;2023-05-18T19:42:37;10.47;;;6.70;;
6566;SDS011;3317;43.994;22.878;2023-05-18T19:45:04;13.30;;;6.93;;
6566;SDS011;3317;43.994;22.878;2023-05-18T19:47:32;8.33;;;6.40;;
6566;SDS011;3317;43.994;22.878;2023-05-18T19:49:59;11.63;;;7.57;;
6566;SDS011;3317;43.994;22.878;2023-05-18T19:52:26;9.77;;;6.90;;
6566;SDS011;3317;43.994;22.878;2023-05-18T19:54:52;11.90;;;7.97;;
6566;SDS011;3317;43.994;22.878;2023-05-18T19:57:21;13.00;;;8.77;;
6566;SDS011;3317;43.994;22.878;2023-05-18T19:59:50;11.27;;;8.83;;
6566;SDS011;3317;43.994;22.878;2023-05-18T20:02:20;12.73;;;9.40;;
6566;SDS011;3317;43.994;22.878;2023-05-18T20:04:47;18.93;;;9.23;;
6566;SDS011;3317;43.994;22.878;2023-05-18T20:07:15;16.37;;;9.37;;
6566;SDS011;3317;43.994;22.878;2023-05-18T20:09:44;14.23;;;9.37;;
6566;SDS011;3317;43.994;22.878;2023-05-18T20:12:11;14.20;;;9.73;;
6566;SDS011;3317;43.994;22.878;2023-05-18T20:14:41;13.80;;;9.80;;
6566;SDS011;3317;43.994;22.878;2023-05-18T20:17:09;16.17;;;9.87;;
6566;SDS011;3317;43.994;22.878;2023-05-18T20:19:38;15.47;;;9.30;;
6566;SDS011;3317;43.994;22.878;2023-05-18T20:22:04;12.17;;;10.37;;
6566;SDS011;3317;43.994;22.878;2023-05-18T20:24:35;15.80;;;10.10;;
6566;SDS011;3317;43.994;22.878;2023-05-18T20:27:02;14.60;;;9.93;;
6566;SDS011;3317;43.994;22.878;2023-05-18T20:29:29;12.10;;;10.07;;
6566;SDS011;3317;43.994;22.878;2023-05-18T20:32:00;14.07;;;10.70;;
6566;SDS011;3317;43.994;22.878;2023-05-18T20:34:27;13.90;;;10.03;;
6566;SDS011;3317;43.994;22.878;2023-05-18T20:36:55;15.03;;;10.60;;
6566;SDS011;3317;43.994;22.878;2023-05-18T20:39:22;12.77;;;10.57;;
6566;SDS011;3317;43.994;22.878;2023-05-18T20:41:50;14.13;;;10.17;;
6566;SDS011;3317;43.994;22.878;2023-05-18T20:44:17;18.17;;;10.67;;
6566;SDS011;3317;43.994;22.878;2023-05-18T20:46:47;15.20;;;10.83;;
6566;SDS011;3317;43.994;22.878;2023-05-18T20:49:18;14.50;;;10.30;;
6566;SDS011;3317;43.994;22.878;2023-05-18T20:51:47;13.60;;;10.90;;
6566;SDS011;3317;43.994;22.878;2023-05-18T20:54:14;17.97;;;10.90;;
6566;SDS011;3317;43.994;22.878;2023-05-18T20:56:42;16.73;;;10.90;;
6566;SDS011;3317;43.994;22.878;2023-05-18T20:59:09;14.00;;;11.13;;
6566;SDS011;3317;43.994;22.878;2023-05-18T21:01:36;19.20;;;12.30;;
6566;SDS011;3317;43.994;22.878;2023-05-18T21:04:03;17.40;;;11.67;;
6566;SDS011;3317;43.994;22.878;2023-05-18T21:06:32;14.97;;;11.00;;
6566;SDS011;3317;43.994;22.878;2023-05-18T21:09:00;14.73;;;11.10;;
6566;SDS011;3317;43.994;22.878;2023-05-18T21:11:27;19.30;;;11.57;;
6566;SDS011;3317;43.994;22.878;2023-05-18T21:13:55;14.13;;;11.27;;
6566;SDS011;3317;43.994;22.878;2023-05-18T21:16:22;17.53;;;11.83;;
6566;SDS011;3317;43.994;22.878;2023-05-18T21:18:49;18.43;;;11.60;;
6566;SDS011;3317;43.994;22.878;2023-05-18T21:21:17;16.00;;;11.47;;
6566;SDS011;3317;43.994;22.878;2023-05-18T21:23:45;15.07;;;11.60;;
6566;SDS011;3317;43.994;22.878;2023-05-18T21:26:12;16.00;;;11.17;;
6566;SDS011;3317;43.994;22.878;2023-05-18T21:28:39;13.57;;;11.03;;
6566;SDS011;3317;43.994;22.878;2023-05-18T21:31:06;13.57;;;10.90;;
6566;SDS011;3317;43.994;22.878;2023-05-18T21:33:33;13.53;;;10.23;;
6566;SDS011;3317;43.994;22.878;2023-05-18T21:36:00;17.07;;;12.07;;
6566;SDS011;3317;43.994;22.878;2023-05-18T21:38:28;14.50;;;11.17;;
6566;SDS011;3317;43.994;22.878;2023-05-18T21:40:56;14.20;;;10.63;;
6566;SDS011;3317;43.994;22.878;2023-05-18T21:43:23;15.27;;;11.33;;
6566;SDS011;3317;43.994;22.878;2023-05-18T21:45:50;15.47;;;10.50;;
6566;SDS011;3317;43.994;22.878;2023-05-18T21:48:18;16.40;;;9.90;;
6566;SDS011;3317;43.994;22.878;2023-05-18T21:50:45;13.90;;;10.50;;
6566;SDS011;3317;43.994;22.878;2023-05-18T21:53:12;12.73;;;9.70;;
6566;SDS011;3317;43.994;22.878;2023-05-18T21:55:38;14.00;;;9.83;;
6566;SDS011;3317;43.994;22.878;2023-05-18T21:58:07;13.27;;;9.47;;
6566;SDS011;3317;43.994;22.878;2023-05-18T22:00:34;15.93;;;9.50;;
6566;SDS011;3317;43.994;22.878;2023-05-18T22:03:02;13.70;;;9.13;;
6566;SDS011;3317;43.994;22.878;2023-05-18T22:05:29;11.60;;;9.30;;
6566;SDS011;3317;43.994;22.878;2023-05-18T22:07:56;13.33;;;9.20;;
6566;SDS011;3317;43.994;22.878;2023-05-18T22:10:23;13.37;;;9.53;;
6566;SDS011;3317;43.994;22.878;2023-05-18T22:12:50;11.50;;;9.20;;
6566;SDS011;3317;43.994;22.878;2023-05-18T22:15:20;13.07;;;10.07;;
6566;SDS011;3317;43.994;22.878;2023-05-18T22:17:48;13.57;;;9.80;;
6566;SDS011;3317;43.994;22.878;2023-05-18T22:20:15;14.13;;;9.47;;
6566;SDS011;3317;43.994;22.878;2023-05-18T22:22:43;11.17;;;8.40;;
6566;SDS011;3317;43.994;22.878;2023-05-18T22:25:10;19.23;;;10.20;;
6566;SDS011;3317;43.994;22.878;2023-05-18T22:27:37;11.03;;;8.50;;
6566;SDS011;3317;43.994;22.878;2023-05-18T22:30:05;13.00;;;9.80;;
6566;SDS011;3317;43.994;22.878;2023-05-18T22:32:34;15.53;;;10.40;;
6566;SDS011;3317;43.994;22.878;2023-05-18T22:35:04;13.23;;;9.37;;
6566;SDS011;3317;43.994;22.878;2023-05-18T22:37:31;13.83;;;10.13;;
6566;SDS011;3317;43.994;22.878;2023-05-18T22:39:58;13.73;;;11.00;;
6566;SDS011;3317;43.994;22.878;2023-05-18T22:42:26;16.30;;;10.97;;
6566;SDS011;3317;43.994;22.878;2023-05-18T22:44:54;17.10;;;10.63;;
6566;SDS011;3317;43.994;22.878;2023-05-18T22:47:21;18.90;;;11.70;;
6566;SDS011;3317;43.994;22.878;2023-05-18T22:49:49;14.27;;;10.53;;
6566;SDS011;3317;43.994;22.878;2023-05-18T22:52:16;18.27;;;12.03;;
6566;SDS011;3317;43.994;22.878;2023-05-18T22:54:43;17.23;;;11.10;;
6566;SDS011;3317;43.994;22.878;2023-05-18T22:57:11;14.57;;;11.47;;
6566;SDS011;3317;43.994;22.878;2023-05-18T22:59:38;23.13;;;12.80;;
6566;SDS011;3317;43.994;22.878;2023-05-18T23:15:33;17.97;;;12.57;;
6566;SDS011;3317;43.994;22.878;2023-05-18T23:18:00;18.53;;;13.60;;
6566;SDS011;3317;43.994;22.878;2023-05-18T23:20:33;22.57;;;12.30;;
6566;SDS011;3317;43.994;22.878;2023-05-18T23:23:00;21.67;;;12.40;;
6566;SDS011;3317;43.994;22.878;2023-05-18T23:25:27;16.37;;;12.33;;
6566;SDS011;3317;43.994;22.878;2023-05-18T23:27:54;17.47;;;12.13;;
6566;SDS011;3317;43.994;22.878;2023-05-18T23:30:21;21.80;;;13.20;;
6566;SDS011;3317;43.994;22.878;2023-05-18T23:32:49;17.20;;;11.70;;
6566;SDS011;3317;43.994;22.878;2023-05-18T23:35:19;16.53;;;11.80;;
6566;SDS011;3317;43.994;22.878;2023-05-18T23:37:47;17.13;;;12.20;;
6566;SDS011;3317;43.994;22.878;2023-05-18T23:40:15;16.57;;;11.50;;
6566;SDS011;3317;43.994;22.878;2023-05-18T23:42:44;20.50;;;13.80;;
6566;SDS011;3317;43.994;22.878;2023-05-18T23:45:13;16.47;;;11.97;;
6566;SDS011;3317;43.994;22.878;2023-05-18T23:47:41;20.77;;;12.60;;
6566;SDS011;3317;43.994;22.878;2023-05-18T23:50:13;18.53;;;12.47;;
6566;SDS011;3317;43.994;22.878;2023-05-18T23:52:41;17.70;;;12.30;;
6566;SDS011;3317;43.994;22.878;2023-05-18T23:55:12;18.93;;;13.23;;
6566;SDS011;3317;43.994;22.878;2023-05-18T23:57:40;18.67;;;13.00;;
